ADDS METAR Data INFO
IDs: Format: Raw Decoded Include TAF

Data at: 0622 UTC 27 Aug 2016

Region: TOP
KATL 270552Z 08005KT 10SM FEW090 26/22 A3010 RMK AO2 SLP181 T02610217 10322 20261 56001

KBOS 270554Z 34006KT 10SM CLR 24/15 A3007 RMK AO2 SLP181 T02440150 10300 20244 51018

KBWI 270554Z 00000KT 10SM FEW060 23/21 A3010 RMK AO2 SLP190 T02330211 10311 20228 51006

KCLE 270551Z 00000KT 10SM CLR 21/15 A3017 RMK AO2 SLP211 T02110150 10250 20200 58005

KCLT 270552Z 00000KT 10SM FEW250 26/21 A3011 RMK AO2 SLP184 T02560211 10300 20239 58004

KCVG 270552Z 00000KT 10SM FEW120 OVC250 24/22 A3011 RMK AO2 SLP185 60000 T02390222 10289 20233 55005

KDCA 270552Z COR 05005KT 10SM SCT070 BKN250 28/23 A3010 RMK AO2 SLP192 T02780233 10322 20278 51004

KDEN 270553Z 28005KT 10SM FEW200 14/10 A3012 RMK AO2 SLP138 T01440100 10244 20122 55000

KDFW 270553Z 19006KT 10SM SCT250 BKN300 24/21 A3000 RMK AO2 SLP149 T02440211 10289 20244 403280244 58000

KDTW 270553Z 00000KT 8SM BKN230 22/18 A3015 RMK AO2 SLP204 T02170183 10267 20211 57005

KEWR 270551Z 01008KT 10SM FEW260 24/17 A3009 RMK AO2 SLP188 T02390172 10306 20233 51011

KFLL 270553Z 05007KT 10SM SCT030 SCT100 BKN200 28/23 A2990 RMK AO2 SLP125 T02780233 10294 20272 58019

KIAD 270552Z 36004KT 10SM FEW060 26/21 A3011 RMK AO2 SLP192 T02610211 10311 20256 51004

KIAH 270553Z 02004KT 9SM SCT100 BKN150 BKN250 24/23 A2998 RMK AO2 SLP149 60004 T02440228 10256 20233 403170228 58009

KJFK 270551Z 36009KT 10SM FEW250 26/17 A3009 RMK AO2 SLP189 T02610172 51011 CHINO W $

KLAS 270556Z 19008G15KT 10SM BKN110 BKN180 29/08 A2988 RMK AO2 SLP091 FRQ LTGICCCCG DSNT S-SW T02940083 10356 20289 51015

KLAX 270553Z 28007KT 10SM BKN015 19/15 A2997 RMK AO2 SLP145 T01890150 10211 20183 51008

KLGA 270551Z COR 36008KT 10SM FEW260 27/18 A3008 RMK AO2 SLP185 T02670178 10306 20261 51010

KMCO 270553Z 03006KT 10SM FEW048 OVC300 26/23 A2999 RMK AO2 SLP154 T02610228 10283 20261 58006

KMDW 270553Z 07008KT 10SM SCT034 BKN110 OVC150 22/18 A3011 RMK AO2 RAE15B35E52 SLP188 P0001 60003 T02220183 10244 20222 402720200 58001

KMEM 270554Z 11003KT 10SM FEW030 SCT250 24/22 A3004 RMK AO2 SLP168 T02390217 10250 20239 403110239 56009

KMIA 270553Z 04004KT 10SM FEW020 BKN180 OVC250 28/25 A2992 RMK AO2 SLP131 OCNL LTGIC DSNT SE CB DSNT SE 60000 T02780250 10294 20272 58014

KMSP 270553Z 14006KT 10SM BKN110 OVC180 18/13 A3010 RMK AO2 SLP189 T01830128 10211 20178 402220139 56011

KORD 270551Z 04006KT 10SM BKN033 OVC120 21/18 A3011 RMK AO2 RAE07 SLP193 P0000 60014 T02060183 10233 20200 402720189 58003

KPDX 270553Z 34003KT 10SM CLR 27/09 A2982 RMK AO2 SLP098 T02670094 10356 20267 51013

KPHL 270554Z 33004KT 10SM CLR 26/19 A3010 RMK AO2 SLP192 T02560189 10317 20256 51010 $

KPHX 270551Z 09007KT 10SM SCT110 BKN250 32/14 A2984 RMK AO2 SLP085 T03170139 10367 20317 51010

KPIT 270551Z 00000KT 10SM CLR 23/16 A3017 RMK AO2 SLP213 T02280161 10278 20194 58002

KSAN 270551Z 30004KT 10SM OVC024 20/14 A2999 RMK AO2 SLP154 T02000139 10222 20200 50008

KSEA 270553Z 14005KT 10SM SCT250 25/09 A2981 RMK AO2 SLP098 T02500089 10333 20250 58003

KSFO 270556Z 20011KT 10SM FEW010 FEW170 17/12 A2997 RMK AO2 SLP150 T01670117 10211 20167 51012

KSLC 270554Z 12006KT 10SM CLR 20/M02 A3002 RMK AO2 SLP112 T02001022 10289 20200 51011

KSTL 270551Z 20005KT 10SM SCT120 BKN250 27/22 A3005 RMK AO2 SLP160 T02670222 10289 20267 403110233 55003

KTPA 270553Z 06004KT 10SM BKN029 BKN047 BKN230 27/24 A2998 RMK AO2 SLP152 OCNL LTGIC DSNT S AND W CB DSNT S AND W T02720239 10283 20272 58008